Time;durP1;ratioP1;P1;durP2;ratioP2;P2;SDS_P1;SDS_P2;PMS_P1;PMS_P2;Temp;Humidity;BMP_temperature;BMP_pressure;BME280_temperature;BME280_humidity;BME280_pressure;Samples;Min_cycle;Max_cycle;Signal;HPM_P1;HPM_P2
2022/01/14 00:01:39;;;;;;;37.33;17.98;;;;;;;0.68;82.27;100668.31;4842895;29;20372;-86
2022/01/14 00:04:05;;;;;;;35.90;18.38;;;;;;;0.89;82.41;100694.44;4843299;29;20038;-87
2022/01/14 00:06:30;;;;;;;37.88;19.00;;;;;;;0.88;82.97;100692.75;4858846;29;20060;-88
2022/01/14 00:09:04;;;;;;;39.22;19.20;;;;;;;0.89;82.51;100699.69;4828620;29;20124;-88
2022/01/14 00:11:31;;;;;;;37.03;18.85;;;;;;;0.90;82.33;100695.25;4844674;29;20439;-88
2022/01/14 00:14:45;;;;;;;33.78;17.75;;;;;;;0.92;83.13;100695.97;4829210;29;20033;-87
2022/01/14 00:16:43;;;;;;;41.03;19.17;;;;;;;0.92;83.13;100688.88;4855601;29;20073;-87
2022/01/14 00:19:09;;;;;;;41.33;19.55;;;;;;;0.94;82.78;100680.88;4859128;29;20037;-86
2022/01/14 00:21:37;;;;;;;42.03;20.25;;;;;;;0.83;82.69;100663.44;4859089;29;20109;-87
2022/01/14 00:24:10;;;;;;;38.67;18.17;;;;;;;0.94;82.93;100686.13;4843645;29;20094;-87
2022/01/14 00:32:48;;;;;;;37.20;18.35;;;;;;;0.90;82.86;100682.94;4859927;29;20037;-86
2022/01/14 00:34:57;;;;;;;33.35;16.73;;;;;;;0.89;82.58;100683.91;4858751;29;20068;-87
2022/01/14 00:37:25;;;;;;;33.22;16.73;;;;;;;0.86;82.33;100689.44;4858376;29;20471;-87
2022/01/14 00:39:50;;;;;;;38.08;19.15;;;;;;;0.87;83.07;100683.25;4840511;29;20177;-88
2022/01/14 00:42:16;;;;;;;37.67;18.90;;;;;;;0.87;82.67;100679.78;4846977;29;20025;-86
2022/01/14 00:44:42;;;;;;;34.47;17.15;;;;;;;0.76;82.27;100662.38;4842941;29;20507;-85
2022/01/14 00:47:07;;;;;;;34.55;18.25;;;;;;;0.83;82.25;100679.22;4847997;29;20034;-86
2022/01/14 00:49:33;;;;;;;31.77;17.10;;;;;;;0.84;82.65;100670.38;4833717;29;20041;-86
2022/01/14 00:51:58;;;;;;;32.30;17.75;;;;;;;0.62;82.57;100636.53;4859084;29;20178;-86
2022/01/14 00:54:27;;;;;;;33.78;16.73;;;;;;;0.76;82.70;100657.91;4827621;29;20498;-87
2022/01/14 00:59:33;;;;;;;34.47;19.08;;;;;;;0.82;82.33;100660.97;4859327;29;20052;-87
2022/01/14 01:02:00;;;;;;;34.95;17.42;;;;;;;0.77;82.40;100653.50;4857783;29;20025;-86
2022/01/14 01:04:35;;;;;;;34.22;18.67;;;;;;;0.83;82.48;100654.75;4839526;29;20037;-86
2022/01/14 01:07:03;;;;;;;34.78;16.50;;;;;;;0.74;82.39;100641.47;4845154;29;20037;-84
2022/01/14 01:09:30;;;;;;;32.08;16.73;;;;;;;0.82;82.13;100646.03;4841951;29;20041;-86
2022/01/14 01:12:17;;;;;;;35.25;18.30;;;;;;;0.81;82.54;100643.56;4857689;29;20031;-86
2022/01/14 01:14:51;;;;;;;29.80;16.10;;;;;;;0.78;82.01;100652.53;4831465;29;20061;-85
2022/01/14 01:17:17;;;;;;;36.20;17.27;;;;;;;0.75;82.41;100650.19;4839439;29;20036;-86
2022/01/14 01:19:43;;;;;;;37.45;17.58;;;;;;;0.77;81.95;100659.59;4837281;29;20041;-86
2022/01/14 01:22:09;;;;;;;32.47;16.83;;;;;;;0.73;81.80;100652.13;4856615;29;20466;-85
2022/01/14 01:24:36;;;;;;;34.50;18.10;;;;;;;0.74;82.28;100653.81;4857402;29;20040;-87
2022/01/14 01:27:08;;;;;;;34.15;16.38;;;;;;;0.75;82.27;100642.31;4841735;29;20041;-85
2022/01/14 01:32:03;;;;;;;34.33;16.98;;;;;;;0.73;82.25;100650.34;4856644;29;20033;-85
2022/01/14 01:34:29;;;;;;;38.75;17.70;;;;;;;0.67;81.83;100636.94;4857636;29;20022;-86
2022/01/14 01:36:56;;;;;;;31.67;16.73;;;;;;;0.71;81.53;100640.94;4842256;29;20042;-86
2022/01/14 01:39:24;;;;;;;34.28;17.10;;;;;;;0.67;81.90;100639.56;4857396;29;20025;-85
2022/01/14 01:41:56;;;;;;;36.08;16.70;;;;;;;0.69;81.90;100640.25;4860141;29;20056;-85
2022/01/14 01:44:23;;;;;;;38.13;17.75;;;;;;;0.66;81.83;100625.59;4849098;29;20116;-88
2022/01/14 01:46:50;;;;;;;40.13;19.08;;;;;;;0.66;82.52;100640.53;4849540;29;20040;-85
2022/01/14 01:49:19;;;;;;;33.63;16.80;;;;;;;0.63;81.94;100633.75;4848974;29;20034;-85
2022/01/14 01:51:46;;;;;;;32.67;16.77;;;;;;;0.62;82.25;100639.16;4863560;29;20041;-86
2022/01/14 01:54:13;;;;;;;33.17;17.00;;;;;;;0.64;82.09;100639.84;4864275;29;20040;-86
2022/01/14 01:56:38;;;;;;;42.00;19.17;;;;;;;0.54;81.83;100625.91;4861465;29;20060;-86
2022/01/14 01:59:05;;;;;;;35.47;16.73;;;;;;;0.63;82.05;100636.38;4855028;29;20026;-86
2022/01/14 02:01:30;;;;;;;31.65;16.92;;;;;;;0.62;81.86;100636.53;4848553;29;20411;-86
2022/01/14 02:03:56;;;;;;;34.88;16.65;;;;;;;0.59;81.34;100635.00;4844755;29;20026;-85
2022/01/14 02:06:23;;;;;;;29.98;16.13;;;;;;;0.58;81.36;100630.72;4830996;29;20046;-84
2022/01/14 02:08:49;;;;;;;32.42;18.27;;;;;;;0.52;81.67;100617.34;4847216;29;20034;-85
2022/01/14 02:11:15;;;;;;;34.13;17.08;;;;;;;0.58;81.87;100628.09;4861951;29;20114;-85
2022/01/14 02:13:41;;;;;;;31.70;17.73;;;;;;;0.60;81.82;100627.94;4863236;29;20515;-86
2022/01/14 02:26:50;;;;;;;35.65;16.80;;;;;;;0.42;81.24;100595.50;4861759;29;20080;-87
2022/01/14 02:29:16;;;;;;;30.92;15.43;;;;;;;0.52;81.84;100612.06;4846113;29;20041;-87
2022/01/14 02:31:41;;;;;;;31.25;16.85;;;;;;;0.54;81.55;100607.50;4845920;29;20398;-87
2022/01/14 02:34:09;;;;;;;35.72;17.80;;;;;;;0.49;81.59;100599.22;4846062;29;20399;-85
2022/01/14 02:36:35;;;;;;;32.47;17.08;;;;;;;-0.20;81.79;100481.31;4861511;29;20033;-87
2022/01/14 02:39:00;;;;;;;29.67;16.77;;;;;;;0.47;81.57;100588.84;4861163;29;20129;-86
2022/01/14 02:41:26;;;;;;;33.30;16.65;;;;;;;0.43;81.45;100584.03;4845998;29;20090;-86
2022/01/14 02:43:52;;;;;;;30.55;16.20;;;;;;;0.49;81.41;100591.34;4846352;29;20582;-86
2022/01/14 02:46:17;;;;;;;33.13;16.58;;;;;;;0.47;81.42;100593.28;4861239;29;20116;-85
2022/01/14 02:48:43;;;;;;;28.55;16.05;;;;;;;0.48;81.58;100597.56;4845781;29;20033;-87
2022/01/14 02:51:12;;;;;;;33.45;15.82;;;;;;;0.47;80.96;100591.50;4845580;29;20075;-86
2022/01/14 02:56:20;;;;;;;30.48;16.05;;;;;;;0.42;81.01;100582.34;4861193;29;20032;-86
2022/01/14 02:58:47;;;;;;;32.80;16.35;;;;;;;0.46;81.32;100586.38;4860410;29;20033;-87
2022/01/14 03:01:18;;;;;;;33.78;17.45;;;;;;;0.27;81.13;100554.88;4845422;29;20035;-86
2022/01/14 03:03:45;;;;;;;32.63;16.33;;;;;;;0.27;81.31;100560.97;4845474;29;20057;-87
2022/01/14 03:06:12;;;;;;;27.65;15.55;;;;;;;0.43;80.95;100581.41;4844876;29;20116;-87
2022/01/14 03:08:38;;;;;;;30.88;15.43;;;;;;;0.41;81.30;100586.81;4844668;29;20110;-86
2022/01/14 03:11:26;;;;;;;28.15;15.15;;;;;;;0.37;81.13;100584.59;4844992;29;20061;-86
2022/01/14 03:13:52;;;;;;;29.83;14.18;;;;;;;0.38;81.03;100588.88;4856987;29;20041;-86
2022/01/14 03:16:20;;;;;;;28.63;15.23;;;;;;;0.18;81.09;100558.34;4829762;29;20446;-87
2022/01/14 03:18:49;;;;;;;32.92;15.90;;;;;;;0.24;81.22;100576.19;4860298;29;20479;-86
2022/01/14 03:21:17;;;;;;;30.70;15.60;;;;;;;0.38;81.26;100580.97;4845139;29;20137;-86
2022/01/14 03:23:50;;;;;;;30.52;15.13;;;;;;;0.25;80.92;100560.28;4829996;29;20037;-86
2022/01/14 03:26:18;;;;;;;29.05;14.55;;;;;;;0.37;80.97;100567.03;4845240;29;20049;-86
2022/01/14 03:28:45;;;;;;;30.05;15.43;;;;;;;0.31;81.32;100557.09;4859964;29;20041;-86
2022/01/14 03:31:10;;;;;;;30.52;14.45;;;;;;;0.28;80.43;100560.00;4845124;29;20410;-86
2022/01/14 03:33:37;;;;;;;31.83;15.95;;;;;;;0.31;81.09;100564.97;4845616;29;20033;-85
2022/01/14 03:36:04;;;;;;;32.35;16.73;;;;;;;0.33;80.84;100580.59;4845828;29;20500;-85
2022/01/14 03:38:29;;;;;;;28.98;14.90;;;;;;;0.33;80.84;100577.97;4827683;29;20034;-85
2022/01/14 03:40:55;;;;;;;28.52;14.88;;;;;;;0.30;80.71;100576.44;4859263;29;20066;-85
2022/01/14 03:43:20;;;;;;;32.10;17.17;;;;;;;0.32;80.61;100584.19;4859513;29;20093;-85
2022/01/14 03:45:48;;;;;;;29.17;14.45;;;;;;;0.27;80.77;100579.34;4859019;29;20122;-86
2022/01/14 03:48:14;;;;;;;28.45;14.68;;;;;;;0.25;81.18;100577.81;4860116;29;20025;-84
2022/01/14 03:50:41;;;;;;;28.45;14.07;;;;;;;0.30;81.04;100578.25;4844947;29;20033;-85
2022/01/14 03:53:07;;;;;;;34.67;16.50;;;;;;;0.26;80.37;100576.88;4844157;29;20033;-84
2022/01/14 03:55:32;;;;;;;28.98;16.23;;;;;;;0.26;80.55;100576.88;4860312;29;20037;-84
2022/01/14 03:57:57;;;;;;;29.50;14.43;;;;;;;0.26;80.94;100582.13;4852894;29;20041;-84
2022/01/14 04:00:23;;;;;;;29.48;15.18;;;;;;;0.25;80.35;100575.19;4841739;29;20026;-87
2022/01/14 04:02:49;;;;;;;29.90;15.93;;;;;;;0.24;80.70;100584.88;4844492;29;20037;-85
2022/01/14 04:05:15;;;;;;;31.63;15.07;;;;;;;0.20;80.94;100578.25;4829433;29;20065;-86
2022/01/14 04:07:41;;;;;;;29.60;16.00;;;;;;;0.09;80.37;100560.00;4858356;29;20022;-84
2022/01/14 04:10:10;;;;;;;32.50;16.13;;;;;;;-0.19;81.06;100513.63;4846793;29;20498;-86
2022/01/14 04:12:59;;;;;;;29.35;15.20;;;;;;;0.18;80.79;100577.56;4844961;29;20030;-87
2022/01/14 04:15:37;;;;;;;27.08;13.98;;;;;;;0.18;80.85;100581.97;4861672;29;20040;-85
2022/01/14 04:18:21;;;;;;;25.77;14.35;;;;;;;0.16;80.16;100573.41;4842673;29;20045;-85
2022/01/14 04:20:50;;;;;;;26.38;15.30;;;;;;;0.16;80.38;100573.41;4843544;29;20148;-85
2022/01/14 04:23:20;;;;;;;27.20;14.27;;;;;;;-0.09;81.07;100530.22;4844213;29;20033;-85
2022/01/14 04:25:51;;;;;;;32.25;15.43;;;;;;;0.12;80.23;100562.38;4845224;29;20116;-86
2022/01/14 04:28:18;;;;;;;30.83;15.27;;;;;;;0.12;80.92;100564.16;4859360;29;20392;-85
2022/01/14 04:30:43;;;;;;;28.48;15.32;;;;;;;0.10;80.13;100563.47;4843812;29;20041;-85
2022/01/14 04:33:08;;;;;;;26.98;14.18;;;;;;;0.07;80.82;100545.41;4843599;29;20038;-85
2022/01/14 04:35:34;;;;;;;29.35;15.75;;;;;;;0.12;80.34;100554.50;4844390;29;20080;-86
2022/01/14 04:38:00;;;;;;;32.17;16.55;;;;;;;0.12;80.18;100557.13;4830461;29;20562;-84
2022/01/14 04:40:25;;;;;;;30.10;15.00;;;;;;;-0.01;80.02;100538.22;4857055;29;20052;-89
2022/01/14 04:42:52;;;;;;;30.27;15.27;;;;;;;0.11;80.34;100554.66;4825618;29;20030;-88
2022/01/14 04:48:16;;;;;;;38.13;16.80;;;;;;;0.07;80.72;100551.44;4857367;29;20050;-85
2022/01/14 04:50:42;;;;;;;22.77;13.50;;;;;;;0.07;80.56;100558.53;4842094;29;20041;-84
2022/01/14 04:53:10;;;;;;;34.00;15.27;;;;;;;0.06;80.80;100557.69;4844759;29;20411;-85
2022/01/14 04:55:36;;;;;;;28.45;13.60;;;;;;;0.07;80.91;100550.66;4843666;29;20072;-86
2022/01/14 04:58:02;;;;;;;27.73;14.88;;;;;;;0.06;80.30;100549.81;4871890;29;20612;-86
2022/01/14 05:00:30;;;;;;;26.60;13.75;;;;;;;0.06;80.18;100543.72;4833210;29;20454;-86
2022/01/14 05:02:56;;;;;;;27.00;14.60;;;;;;;0.02;80.44;100545.81;4859455;29;20037;-85
2022/01/14 05:05:24;;;;;;;29.25;16.38;;;;;;;0.06;80.52;100541.09;4861016;29;20029;-87
2022/01/14 05:07:52;;;;;;;30.38;15.80;;;;;;;0.04;80.69;100548.28;4862245;29;20033;-86
2022/01/14 05:12:52;;;;;;;26.83;14.80;;;;;;;-0.26;80.23;100507.28;4861253;29;20045;-85
2022/01/14 05:15:19;;;;;;;28.55;15.25;;;;;;;-0.23;80.49;100501.75;4861463;29;20033;-85
2022/01/14 05:17:45;;;;;;;25.77;13.45;;;;;;;0.00;80.81;100534.63;4842806;29;20041;-85
2022/01/14 05:20:12;;;;;;;24.92;14.02;;;;;;;0.02;80.54;100535.31;4860945;29;20029;-87
2022/01/14 05:22:37;;;;;;;27.73;12.95;;;;;;;-0.04;80.12;100527.97;4865454;29;20052;-86
2022/01/14 05:25:05;;;;;;;31.02;14.30;;;;;;;-0.05;80.61;100534.22;4917990;23;20472;-87
2022/01/14 05:27:30;;;;;;;31.00;15.73;;;;;;;0.00;79.79;100540.69;4871217;29;20083;-87
2022/01/14 05:29:55;;;;;;;28.10;14.13;;;;;;;-0.12;80.51;100518.19;4864922;29;20041;-87
2022/01/14 05:32:22;;;;;;;30.38;15.50;;;;;;;0.03;80.82;100533.50;4833900;29;20135;-87
2022/01/14 05:34:48;;;;;;;27.15;14.77;;;;;;;-0.08;80.69;100523.97;4843334;29;20491;-87
2022/01/14 05:37:14;;;;;;;30.98;15.32;;;;;;;0.06;80.20;100541.94;4859177;29;20045;-87
2022/01/14 05:39:40;;;;;;;29.75;14.52;;;;;;;0.06;80.40;100549.81;4829135;29;20429;-87
2022/01/14 05:42:06;;;;;;;31.65;16.02;;;;;;;0.08;80.49;100544.41;4842469;29;20038;-87
2022/01/14 05:44:32;;;;;;;30.42;16.20;;;;;;;0.10;81.48;100556.44;4856399;29;20026;-87
2022/01/14 05:47:00;;;;;;;34.72;17.45;;;;;;;0.10;81.46;100552.97;4842599;29;20088;-87
2022/01/14 05:49:26;;;;;;;29.13;15.05;;;;;;;0.14;81.20;100549.94;4858090;29;20093;-87
2022/01/14 05:51:52;;;;;;;34.53;15.30;;;;;;;0.17;82.06;100557.53;4872008;29;20029;-87
2022/01/14 05:54:18;;;;;;;28.23;16.42;;;;;;;-0.16;81.86;100495.00;4856953;29;20045;-86
2022/01/14 05:56:44;;;;;;;28.58;15.43;;;;;;;0.20;81.50;100549.38;4844592;29;20085;-87
2022/01/14 05:59:10;;;;;;;29.40;16.83;;;;;;;0.23;81.89;100543.84;4860912;29;20390;-87
2022/01/14 06:01:36;;;;;;;33.65;17.27;;;;;;;0.24;81.82;100536.81;4854142;29;20018;-87
2022/01/14 06:04:03;;;;;;;34.63;17.10;;;;;;;0.27;82.40;100539.97;4858137;29;20093;-88
2022/01/14 06:06:30;;;;;;;36.10;17.23;;;;;;;0.30;81.92;100544.09;4858905;29;20025;-87
2022/01/14 06:08:55;;;;;;;37.53;18.35;;;;;;;0.23;82.53;100546.47;4843493;29;20068;-88
2022/01/14 06:11:21;;;;;;;33.13;17.27;;;;;;;0.29;82.27;100548.53;4844917;29;20064;-87
2022/01/14 06:13:46;;;;;;;40.38;19.08;;;;;;;0.32;83.02;100548.25;4850894;29;20426;-87
2022/01/14 06:16:12;;;;;;;32.30;17.38;;;;;;;0.23;82.81;100532.50;4861339;29;20108;-87
2022/01/14 06:18:38;;;;;;;33.80;19.25;;;;;;;0.36;82.81;100539.13;4858765;29;20029;-87
2022/01/14 06:21:04;;;;;;;37.53;19.27;;;;;;;0.30;83.13;100523.09;4847354;29;20402;-87
2022/01/14 06:23:29;;;;;;;42.45;19.15;;;;;;;0.38;82.78;100531.94;4852351;29;20033;-87
2022/01/14 06:25:54;;;;;;;43.05;20.77;;;;;;;0.44;82.78;100546.28;4843634;29;20033;-87
2022/01/14 06:28:20;;;;;;;41.53;20.73;;;;;;;0.39;83.66;100514.38;4850831;29;20033;-86
2022/01/14 06:30:46;;;;;;;40.15;20.48;;;;;;;0.47;83.18;100530.25;4863966;29;20176;-86
2022/01/14 06:33:11;;;;;;;38.00;19.95;;;;;;;0.45;83.65;100527.78;4848190;29;20193;-86
2022/01/14 06:35:37;;;;;;;43.30;22.13;;;;;;;0.50;83.39;100528.16;4863891;29;20073;-86
2022/01/14 06:38:03;;;;;;;45.25;23.15;;;;;;;0.52;83.77;100523.59;4863420;29;20498;-86
2022/01/14 06:40:29;;;;;;;45.97;22.15;;;;;;;0.53;83.72;100530.50;4848342;29;20037;-87
2022/01/14 06:42:55;;;;;;;48.80;23.15;;;;;;;0.54;84.49;100532.16;4862878;29;20076;-88
2022/01/14 06:45:22;;;;;;;44.40;22.30;;;;;;;0.50;84.28;100516.84;4845517;29;20034;-86
2022/01/14 06:47:48;;;;;;;42.35;19.95;;;;;;;0.60;83.84;100536.00;4845834;29;20033;-86
2022/01/14 06:50:14;;;;;;;44.65;22.48;;;;;;;0.60;83.88;100539.47;4846018;29;20032;-86
2022/01/14 06:52:39;;;;;;;47.25;22.10;;;;;;;0.46;84.56;100497.09;4846597;29;20078;-86
2022/01/14 06:55:06;;;;;;;44.08;21.98;;;;;;;0.64;83.92;100525.06;4846864;29;20041;-87
2022/01/14 06:57:31;;;;;;;47.72;23.85;;;;;;;0.67;84.90;100521.34;4830572;29;20099;-86
2022/01/14 06:59:57;;;;;;;41.65;21.55;;;;;;;0.69;84.96;100532.53;4846203;29;20034;-88
2022/01/14 07:02:22;;;;;;;41.22;20.75;;;;;;;0.70;84.79;100536.78;4833874;29;20105;-83
2022/01/14 07:04:48;;;;;;;49.40;23.17;;;;;;;0.64;84.55;100524.22;4848488;29;20455;-85
2022/01/14 07:07:13;;;;;;;49.75;21.70;;;;;;;0.71;84.77;100512.19;4867182;29;20060;-88
2022/01/14 07:09:55;;;;;;;45.65;23.05;;;;;;;0.73;85.41;100511.06;4849873;29;20075;-85
2022/01/14 07:12:23;;;;;;;49.83;24.45;;;;;;;0.76;85.25;100525.72;4852237;29;20031;-86
2022/01/14 07:14:48;;;;;;;46.38;22.05;;;;;;;0.76;85.15;100521.28;4847374;29;20041;-86
2022/01/14 07:17:14;;;;;;;48.80;21.60;;;;;;;0.76;85.49;100523.91;4864036;29;20045;-85
2022/01/14 07:19:39;;;;;;;43.78;21.50;;;;;;;0.80;85.92;100537.59;4849194;29;20389;-87
2022/01/14 07:22:05;;;;;;;47.28;21.25;;;;;;;0.82;85.84;100537.44;4833871;29;20026;-87
2022/01/14 07:24:30;;;;;;;36.42;20.75;;;;;;;0.82;85.40;100519.88;4850110;29;20040;-86
2022/01/14 07:26:56;;;;;;;46.38;22.40;;;;;;;0.78;85.30;100529.03;4850500;29;20065;-86
2022/01/14 07:29:22;;;;;;;45.03;21.92;;;;;;;0.87;85.58;100556.25;4845322;29;20056;-87
2022/01/14 07:31:47;;;;;;;42.20;20.77;;;;;;;0.71;85.46;100514.81;4859768;29;20041;-87
2022/01/14 07:34:13;;;;;;;39.45;20.60;;;;;;;0.89;85.79;100535.91;4859550;29;20042;-87
2022/01/14 07:36:41;;;;;;;42.20;19.05;;;;;;;0.90;85.91;100541.00;4849531;29;20044;-85
2022/01/14 07:39:06;;;;;;;43.67;20.75;;;;;;;0.83;85.58;100525.97;4850881;29;20062;-86
2022/01/14 07:41:32;;;;;;;45.92;20.48;;;;;;;0.91;85.55;100544.47;4846767;29;20121;-87
2022/01/14 07:43:57;;;;;;;38.80;19.27;;;;;;;0.94;86.01;100557.31;4847980;29;20337;-85
2022/01/14 07:46:23;;;;;;;37.05;18.05;;;;;;;0.95;86.17;100541.41;4847387;29;20038;-86
2022/01/14 07:48:48;;;;;;;41.47;19.92;;;;;;;0.95;86.10;100533.53;4853723;29;20041;-87
2022/01/14 07:51:14;;;;;;;35.75;18.95;;;;;;;0.93;85.81;100530.22;4848601;29;20563;-86
2022/01/14 07:53:40;;;;;;;35.55;18.95;;;;;;;0.61;85.95;100478.06;4849743;29;20033;-86
2022/01/14 07:56:13;;;;;;;37.75;18.08;;;;;;;0.98;86.64;100537.66;4831487;29;20053;-85
2022/01/14 07:58:40;;;;;;;43.72;20.05;;;;;;;0.99;86.45;100536.66;4830152;29;20033;-86
2022/01/14 08:01:06;;;;;;;44.50;19.98;;;;;;;1.00;86.47;100526.03;4849690;29;20118;-85
2022/01/14 08:03:31;;;;;;;45.30;21.80;;;;;;;1.00;86.42;100527.81;4842119;29;20045;-85
2022/01/14 08:05:58;;;;;;;39.38;20.35;;;;;;;1.02;86.25;100526.72;4850000;29;20037;-87
2022/01/14 08:08:23;;;;;;;39.35;20.02;;;;;;;1.03;86.50;100530.16;4835790;29;20132;-85
2022/01/14 08:10:49;;;;;;;39.22;20.30;;;;;;;1.05;86.72;100528.22;4856690;29;20124;-86
2022/01/14 08:13:14;;;;;;;41.00;21.48;;;;;;;0.92;86.47;100494.38;4848794;29;20040;-87
2022/01/14 08:15:40;;;;;;;43.00;19.55;;;;;;;1.04;86.92;100521.28;4852153;29;20566;-85
2022/01/14 08:18:06;;;;;;;42.17;22.10;;;;;;;1.09;87.18;100521.69;4849849;29;20051;-85
2022/01/14 08:20:32;;;;;;;46.88;22.80;;;;;;;1.11;86.80;100533.72;4848514;29;20120;-87
2022/01/14 08:22:58;;;;;;;42.45;22.20;;;;;;;1.01;86.61;100522.41;4860533;29;20487;-85
2022/01/14 08:25:24;;;;;;;36.58;18.05;;;;;;;1.13;87.00;100551.97;4847788;29;20124;-84
2022/01/14 08:27:49;;;;;;;36.05;20.38;;;;;;;1.15;87.41;100553.47;4848592;29;20431;-86
2022/01/14 08:30:15;;;;;;;38.67;18.13;;;;;;;1.17;86.82;100564.69;4831238;29;20089;-86
2022/01/14 08:32:41;;;;;;;38.03;18.30;;;;;;;1.14;87.20;100564.97;4863926;29;20057;-85
2022/01/14 08:35:07;;;;;;;34.92;19.50;;;;;;;1.15;86.84;100557.91;4848547;29;20033;-85
2022/01/14 08:37:33;;;;;;;34.63;17.92;;;;;;;1.13;87.03;100565.97;4846781;29;20040;-86
2022/01/14 08:39:59;;;;;;;40.17;18.23;;;;;;;1.23;87.08;100581.66;4860840;29;20591;-87
2022/01/14 08:42:24;;;;;;;37.08;19.85;;;;;;;1.14;86.97;100575.47;4846276;29;20026;-85
2022/01/14 08:44:50;;;;;;;39.22;18.33;;;;;;;1.25;86.90;100577.91;4849337;29;20045;-85
2022/01/14 08:47:16;;;;;;;39.17;19.15;;;;;;;1.20;86.65;100567.00;4845263;29;20033;-85
2022/01/14 08:49:42;;;;;;;38.88;19.35;;;;;;;1.26;87.27;100582.22;4860052;29;20030;-85
2022/01/14 08:52:10;;;;;;;39.38;18.92;;;;;;;1.28;87.33;100585.53;4844073;29;20479;-85
2022/01/14 08:54:35;;;;;;;41.95;18.55;;;;;;;1.11;87.47;100557.38;4870601;29;20025;-85
2022/01/14 08:57:04;;;;;;;34.53;17.02;;;;;;;1.30;87.44;100583.56;4842667;29;20570;-84
2022/01/14 08:59:31;;;;;;;43.03;19.70;;;;;;;1.32;87.22;100591.31;4843582;29;20128;-86
2022/01/14 09:01:57;;;;;;;42.38;19.58;;;;;;;1.33;87.55;100593.78;4861744;29;20041;-87
2022/01/14 09:04:23;;;;;;;40.40;19.10;;;;;;;1.00;87.18;100526.03;4847085;29;20048;-86
2022/01/14 09:06:49;;;;;;;40.15;20.83;;;;;;;1.37;87.16;100599.59;4833271;29;20034;-85
2022/01/14 09:09:14;;;;;;;41.67;20.27;;;;;;;1.38;87.54;100598.59;4866975;29;20028;-85
2022/01/14 09:11:41;;;;;;;36.80;17.98;;;;;;;1.04;87.34;100544.97;4847096;29;20110;-84
2022/01/14 09:14:07;;;;;;;37.78;18.42;;;;;;;1.41;87.25;100600.97;4853723;29;20100;-86
2022/01/14 09:16:32;;;;;;;38.90;19.98;;;;;;;1.44;87.74;100612.00;4864506;29;20502;-86
2022/01/14 09:18:58;;;;;;;38.35;19.85;;;;;;;1.38;87.06;100594.19;4864879;29;20033;-86
2022/01/14 09:21:24;;;;;;;36.47;17.67;;;;;;;1.42;87.08;100598.16;4859364;29;20031;-85
2022/01/14 09:24:03;;;;;;;38.75;19.50;;;;;;;1.49;87.00;100601.88;4860732;29;20062;-86
2022/01/14 09:26:29;;;;;;;44.28;20.60;;;;;;;1.50;87.55;100594.81;4862127;29;20524;-85
2022/01/14 09:28:55;;;;;;;42.78;21.17;;;;;;;1.50;87.64;100600.91;4864104;29;20042;-85
2022/01/14 09:32:14;;;;;;;44.15;20.17;;;;;;;1.49;87.53;100603.66;4927609;23;20067;-86
2022/01/14 09:34:40;;;;;;;44.55;21.65;;;;;;;1.49;87.48;100604.50;4860013;29;20045;-85
2022/01/14 09:37:05;;;;;;;36.15;20.20;;;;;;;1.55;87.36;100616.25;4819382;29;20419;-85
2022/01/14 09:39:32;;;;;;;40.10;21.23;;;;;;;1.46;87.25;100599.53;4844371;29;20034;-85
2022/01/14 09:41:59;;;;;;;42.50;21.77;;;;;;;1.54;87.56;100606.69;4845495;29;20449;-86
2022/01/14 09:44:25;;;;;;;38.75;20.55;;;;;;;1.50;87.66;100595.66;4847527;29;20076;-85
2022/01/14 09:46:52;;;;;;;38.72;21.95;;;;;;;1.55;87.28;100602.28;4844992;29;20113;-86
2022/01/14 09:49:18;;;;;;;40.25;21.10;;;;;;;1.64;87.28;100619.81;4853390;29;20025;-86
2022/01/14 09:51:43;;;;;;;39.00;20.90;;;;;;;1.64;87.23;100617.97;4860625;29;20064;-86
2022/01/14 09:54:10;;;;;;;41.92;20.52;;;;;;;1.55;87.49;100600.47;4825743;29;20034;-85
2022/01/14 09:56:38;;;;;;;48.22;22.98;;;;;;;1.68;87.45;100613.28;4845246;29;20026;-85
2022/01/14 09:59:04;;;;;;;45.17;22.27;;;;;;;1.68;87.68;100618.53;4848702;29;20034;-85
2022/01/14 10:01:38;;;;;;;49.42;25.42;;;;;;;1.71;87.71;100628.75;4842030;29;20506;-86
2022/01/14 10:04:04;;;;;;;43.78;23.50;;;;;;;1.71;87.74;100624.31;4863383;29;20058;-85
2022/01/14 10:06:52;;;;;;;45.97;22.40;;;;;;;1.70;87.59;100617.41;4864072;29;20041;-86
2022/01/14 10:09:39;;;;;;;52.08;24.77;;;;;;;1.73;87.49;100627.63;4849401;29;20510;-86
2022/01/14 10:12:10;;;;;;;;;;;;;;;1.68;87.88;100632.53;4849016;29;20037;-86
2022/01/14 10:14:43;;;;;;;52.90;26.05;;;;;;;1.67;87.53;100630.84;4841904;29;19943;-86
2022/01/14 10:17:11;;;;;;;50.65;24.83;;;;;;;1.71;87.74;100644.53;4843084;29;20033;-86
2022/01/14 10:19:42;;;;;;;49.40;25.42;;;;;;;1.73;87.78;100634.69;4839633;29;20033;-86
2022/01/14 10:22:44;;;;;;;59.92;25.48;;;;;;;1.73;88.07;100634.69;4831603;29;20022;-87
2022/01/14 10:25:14;;;;;;;52.28;27.45;;;;;;;1.63;87.88;100610.25;4838324;29;20137;-85
2022/01/14 10:27:51;;;;;;;57.83;27.25;;;;;;;1.64;88.07;100612.72;4848142;29;20045;-86
2022/01/14 10:30:34;;;;;;;55.58;26.20;;;;;;;1.70;87.80;100613.94;4842109;29;20034;-85
2022/01/14 10:33:06;;;;;;;59.92;25.45;;;;;;;1.80;87.79;100633.97;4823923;29;20034;-84
2022/01/14 10:35:42;;;;;;;51.53;26.15;;;;;;;1.59;87.51;100588.66;4845271;29;20045;-85
2022/01/14 10:38:18;;;;;;;53.42;25.40;;;;;;;1.81;88.20;100625.09;4847145;29;20088;-85
2022/01/14 10:40:47;;;;;;;54.33;26.58;;;;;;;1.82;87.83;100610.94;4848122;29;20049;-84
2022/01/14 10:43:15;;;;;;;57.38;25.92;;;;;;;1.76;88.24;100593.13;4845827;29;20090;-85
2022/01/14 10:45:43;;;;;;;48.53;23.77;;;;;;;1.86;88.10;100604.41;4833717;29;20034;-86
2022/01/14 10:48:18;;;;;;;52.90;24.83;;;;;;;1.80;87.70;100591.84;4839942;29;20475;-85
2022/01/14 10:50:55;;;;;;;44.90;22.00;;;;;;;1.75;87.54;100583.56;4850191;29;20034;-85
2022/01/14 10:53:27;;;;;;;337.58;51.42;;;;;;;1.84;88.04;100592.34;4871212;29;20406;-86
2022/01/14 10:56:04;;;;;;;123.43;29.00;;;;;;;1.90;88.08;100597.03;4843217;29;20033;-83
2022/01/14 10:58:33;;;;;;;83.70;24.55;;;;;;;1.89;87.87;100590.13;4874830;29;20017;-86
2022/01/14 11:01:03;;;;;;;74.35;23.33;;;;;;;1.90;87.98;100587.31;4847445;29;20510;-87
2022/01/14 11:03:37;;;;;;;61.88;21.70;;;;;;;1.86;87.94;100579.88;4849840;29;20056;-84
2022/01/14 11:06:23;;;;;;;38.88;20.70;;;;;;;1.90;88.37;100576.78;4843561;29;20041;-86
2022/01/14 11:09:00;;;;;;;52.33;24.05;;;;;;;1.92;88.19;100581.94;4843082;29;20033;-86
2022/01/14 11:11:30;;;;;;;41.65;21.63;;;;;;;1.82;88.48;100560.09;4851498;29;20069;-87
2022/01/14 11:13:56;;;;;;;47.47;21.88;;;;;;;1.95;88.06;100578.97;4860630;29;20030;-86
2022/01/14 11:16:22;;;;;;;40.55;19.33;;;;;;;1.98;88.30;100578.69;4852364;29;20045;-86
2022/01/14 11:18:49;;;;;;;41.65;20.77;;;;;;;1.96;88.60;100578.84;4842218;29;20057;-85
2022/01/14 11:24:04;;;;;;;39.25;18.98;;;;;;;1.97;88.70;100546.25;4850152;29;20094;-86
2022/01/14 11:26:34;;;;;;;36.40;19.45;;;;;;;1.94;89.32;100538.69;4936501;23;20126;-86
2022/01/14 11:29:09;;;;;;;39.65;19.92;;;;;;;1.99;89.02;100546.94;4873698;29;20030;-85
2022/01/14 11:31:37;;;;;;;38.80;19.27;;;;;;;2.00;89.37;100555.66;4852776;29;20085;-85
2022/01/14 11:34:07;;;;;;;36.58;18.40;;;;;;;2.04;88.79;100549.09;4859487;29;20045;-86
2022/01/14 11:36:52;;;;;;;38.00;17.60;;;;;;;2.02;89.16;100535.28;4840871;29;20092;-84
2022/01/14 11:39:23;;;;;;;40.15;18.95;;;;;;;2.05;89.00;100537.59;4842485;29;20045;-85
2022/01/14 11:41:50;;;;;;;38.83;19.27;;;;;;;1.96;89.27;100517.47;4841062;29;20030;-84
2022/01/14 11:44:44;;;;;;;37.33;18.98;;;;;;;2.09;88.88;100534.53;4857717;29;20070;-85
2022/01/14 11:47:35;;;;;;;33.78;18.23;;;;;;;2.11;88.90;100543.09;4860396;29;20046;-84
2022/01/14 11:50:01;;;;;;;36.28;18.70;;;;;;;2.13;89.08;100546.41;4844066;29;20034;-84
2022/01/14 11:52:33;;;;;;;36.17;18.77;;;;;;;2.18;88.60;100541.47;4823694;29;20111;-84
2022/01/14 11:54:59;;;;;;;36.80;19.33;;;;;;;2.17;89.00;100534.56;4842749;29;20037;-84